createdAt,value
2022-08-23T00:01:20.390Z,18.17
2022-08-23T00:03:50.956Z,17.15
2022-08-23T00:06:19.640Z,15.80
2022-08-23T00:08:49.071Z,16.25
2022-08-23T00:11:33.921Z,17.13
2022-08-23T00:14:07.677Z,16.48
2022-08-23T00:16:36.297Z,15.70
2022-08-23T00:19:05.509Z,17.92
2022-08-23T00:21:33.354Z,16.60
2022-08-23T00:24:01.489Z,17.10
2022-08-23T00:26:48.580Z,16.75
2022-08-23T00:29:18.374Z,16.08
2022-08-23T00:31:46.700Z,16.75
2022-08-23T00:34:14.945Z,16.17
2022-08-23T00:36:44.905Z,16.75
2022-08-23T00:39:13.217Z,16.60
2022-08-23T00:41:41.393Z,17.55
2022-08-23T00:44:34.377Z,15.75
2022-08-23T00:47:18.852Z,17.13
2022-08-23T00:49:51.987Z,15.27
2022-08-23T00:52:26.198Z,15.52
2022-08-23T00:54:55.265Z,14.25
2022-08-23T00:57:23.906Z,14.55
2022-08-23T00:59:51.924Z,16.02
2022-08-23T01:02:21.582Z,15.18
2022-08-23T01:04:56.000Z,17.27
2022-08-23T01:07:37.616Z,15.40
2022-08-23T01:10:13.235Z,14.18
2022-08-23T01:12:54.001Z,16.65
2022-08-23T01:15:26.432Z,15.52
2022-08-23T01:18:03.039Z,16.63
2022-08-23T01:20:36.672Z,16.23
2022-08-23T01:23:11.342Z,17.27
2022-08-23T01:25:41.182Z,15.40
2022-08-23T01:28:09.310Z,15.07
2022-08-23T01:30:38.940Z,16.33
2022-08-23T01:33:08.234Z,14.25
2022-08-23T01:35:40.349Z,15.55
2022-08-23T01:40:36.522Z,16.23
2022-08-23T01:43:07.182Z,14.85
2022-08-23T01:45:35.752Z,15.85
2022-08-23T01:48:04.145Z,14.27
2022-08-23T01:50:32.795Z,15.63
2022-08-23T01:53:01.508Z,16.25
2022-08-23T01:55:29.618Z,15.07
2022-08-23T01:58:01.226Z,13.15
2022-08-23T02:00:33.997Z,16.77
2022-08-23T02:03:03.078Z,16.00
2022-08-23T02:05:31.652Z,14.73
2022-08-23T02:08:20.721Z,15.20
2022-08-23T02:10:48.893Z,15.10
2022-08-23T02:13:16.984Z,16.55
2022-08-23T02:15:51.092Z,16.25
2022-08-23T02:18:20.344Z,15.65
2022-08-23T02:20:50.466Z,19.50
2022-08-23T02:23:19.438Z,30.15
2022-08-23T02:25:47.596Z,21.85
2022-08-23T02:28:15.908Z,21.42
2022-08-23T02:30:47.476Z,21.58
2022-08-23T02:35:45.029Z,18.42
2022-08-23T02:38:13.767Z,17.10
2022-08-23T02:40:43.074Z,20.27
2022-08-23T02:43:12.182Z,20.70
2022-08-23T02:45:40.275Z,20.05
2022-08-23T02:48:10.741Z,19.42
2022-08-23T02:50:38.841Z,19.98
2022-08-23T02:53:06.630Z,21.58
2022-08-23T02:55:34.923Z,20.95
2022-08-23T02:58:02.854Z,21.30
2022-08-23T03:00:30.977Z,21.27
2022-08-23T03:02:59.015Z,21.55
2022-08-23T03:05:28.312Z,21.73
2022-08-23T03:07:56.147Z,21.30
2022-08-23T03:10:24.248Z,17.35
2022-08-23T03:12:53.295Z,20.27
2022-08-23T03:15:21.600Z,20.50
2022-08-23T03:17:49.933Z,21.30
2022-08-23T03:20:18.146Z,22.63
2022-08-23T03:22:48.369Z,23.42
2022-08-23T03:25:22.760Z,23.13
2022-08-23T03:27:50.545Z,23.67
2022-08-23T03:30:19.999Z,25.08
2022-08-23T03:32:48.953Z,25.25
2022-08-23T03:35:17.689Z,24.85
2022-08-23T03:37:47.176Z,22.63
2022-08-23T03:40:15.501Z,24.77
2022-08-23T03:42:43.373Z,25.75
2022-08-23T03:45:11.803Z,26.00
2022-08-23T03:47:40.245Z,25.67
2022-08-23T03:50:09.024Z,26.02
2022-08-23T03:52:36.778Z,27.52
2022-08-23T03:55:07.379Z,25.05
2022-08-23T03:57:35.488Z,26.73
2022-08-23T04:00:03.585Z,26.52
2022-08-23T04:02:31.918Z,27.55
2022-08-23T04:04:59.705Z,27.60
2022-08-23T04:07:27.934Z,27.65
2022-08-23T04:09:56.019Z,27.25
2022-08-23T04:12:25.161Z,27.10
2022-08-23T04:14:53.700Z,25.95
2022-08-23T04:17:22.084Z,27.25
2022-08-23T04:19:50.569Z,25.77
2022-08-23T04:22:19.749Z,26.60
2022-08-23T04:24:48.726Z,26.08
2022-08-23T04:27:17.069Z,25.02
2022-08-23T04:29:46.221Z,26.77
2022-08-23T04:32:15.095Z,27.08
2022-08-23T04:34:54.994Z,28.92
2022-08-23T04:37:23.355Z,27.33
2022-08-23T04:40:08.986Z,27.52
2022-08-23T04:42:37.156Z,27.73
2022-08-23T04:45:07.378Z,28.05
2022-08-23T04:47:39.208Z,25.27
2022-08-23T04:52:35.666Z,26.90
2022-08-23T04:55:04.177Z,25.88
2022-08-23T04:57:32.473Z,25.98
2022-08-23T05:00:00.580Z,28.17
2022-08-23T05:02:29.819Z,26.95
2022-08-23T05:04:57.956Z,26.00
2022-08-23T05:07:31.024Z,27.25
2022-08-23T05:10:12.673Z,28.17
2022-08-23T05:12:40.705Z,27.65
2022-08-23T05:15:10.234Z,27.83
2022-08-23T05:17:40.434Z,29.15
2022-08-23T05:20:10.636Z,28.00
2022-08-23T05:22:40.880Z,27.35
2022-08-23T05:25:09.803Z,26.58
2022-08-23T05:27:38.212Z,26.08
2022-08-23T05:30:08.613Z,26.35
2022-08-23T05:32:44.709Z,26.75
2022-08-23T05:35:12.751Z,27.80
2022-08-23T05:37:40.614Z,27.17
2022-08-23T05:40:09.759Z,25.65
2022-08-23T05:42:38.606Z,26.65
2022-08-23T05:45:07.956Z,24.02
2022-08-23T05:47:35.885Z,25.60
2022-08-23T05:50:05.831Z,26.58
2022-08-23T05:52:33.696Z,27.05
2022-08-23T05:55:02.649Z,26.13
2022-08-23T05:57:30.976Z,25.20
2022-08-23T05:59:58.781Z,27.90
2022-08-23T06:02:26.725Z,27.52
2022-08-23T06:04:57.453Z,27.25
2022-08-23T06:07:26.739Z,24.00
2022-08-23T06:09:55.445Z,25.77
2022-08-23T06:12:23.324Z,26.60
2022-08-23T06:14:51.496Z,28.52
2022-08-23T06:17:20.706Z,23.25
2022-08-23T06:19:48.881Z,20.95
2022-08-23T06:22:16.925Z,22.15
2022-08-23T06:24:46.337Z,22.63
2022-08-23T06:27:15.005Z,21.48
2022-08-23T06:29:43.086Z,21.63
2022-08-23T06:32:11.214Z,20.95
2022-08-23T06:34:39.289Z,22.42
2022-08-23T06:37:12.452Z,21.38
2022-08-23T06:39:40.759Z,20.05
2022-08-23T06:42:34.857Z,20.05
2022-08-23T06:45:00.388Z,20.65
2022-08-23T06:47:28.493Z,18.92
2022-08-23T06:49:57.625Z,20.52
2022-08-23T06:52:27.234Z,19.02
2022-08-23T06:54:55.342Z,19.65
2022-08-23T06:57:24.505Z,21.45
2022-08-23T06:59:52.609Z,21.40
2022-08-23T07:02:20.673Z,21.08
2022-08-23T07:04:53.750Z,18.92
2022-08-23T07:07:22.331Z,18.77
2022-08-23T07:09:50.151Z,16.92
2022-08-23T07:12:19.801Z,18.40
2022-08-23T07:14:50.103Z,18.95
2022-08-23T07:17:17.897Z,18.77
2022-08-23T07:19:45.789Z,18.35
2022-08-23T07:22:15.601Z,16.55
2022-08-23T07:24:43.932Z,16.77
2022-08-23T07:27:12.722Z,15.10
2022-08-23T07:29:41.420Z,14.70
2022-08-23T07:32:11.127Z,14.13
2022-08-23T07:34:38.922Z,13.98
2022-08-23T07:37:11.539Z,15.68
2022-08-23T07:39:43.941Z,15.77
2022-08-23T07:42:23.891Z,15.15
2022-08-23T07:44:53.316Z,14.82
2022-08-23T07:47:23.381Z,14.70
2022-08-23T07:49:51.927Z,15.90
2022-08-23T07:52:19.777Z,13.85
2022-08-23T07:54:48.571Z,13.77
2022-08-23T07:57:17.951Z,13.13
2022-08-23T07:59:45.913Z,12.68
2022-08-23T08:02:14.035Z,13.57
2022-08-23T08:04:43.990Z,13.30
2022-08-23T08:07:19.528Z,12.25
2022-08-23T08:09:49.538Z,10.70
2022-08-23T08:12:17.664Z,10.98
2022-08-23T08:14:48.101Z,10.15
2022-08-23T08:17:17.119Z,10.35
2022-08-23T08:19:46.707Z,10.75
2022-08-23T08:22:14.760Z,10.35
2022-08-23T08:24:43.549Z,11.25
2022-08-23T08:27:11.416Z,10.63
2022-08-23T08:29:39.405Z,10.95
2022-08-23T08:32:08.955Z,9.98
2022-08-23T08:34:42.169Z,9.77
2022-08-23T08:37:12.009Z,10.05
2022-08-23T08:39:45.557Z,9.50
2022-08-23T08:42:32.390Z,10.10
2022-08-23T08:45:03.894Z,11.18
2022-08-23T08:52:40.272Z,12.18
2022-08-23T08:55:12.958Z,13.10
2022-08-23T08:57:44.529Z,12.40
2022-08-23T09:00:16.991Z,12.18
2022-08-23T09:02:45.960Z,13.73
2022-08-23T09:05:16.482Z,12.90
2022-08-23T09:07:56.273Z,12.73
2022-08-23T09:10:41.041Z,13.38
2022-08-23T09:13:29.090Z,13.43
2022-08-23T09:16:05.098Z,13.75
2022-08-23T09:18:36.533Z,13.70
2022-08-23T09:21:08.697Z,13.85
2022-08-23T09:23:43.356Z,12.40
2022-08-23T09:26:23.078Z,13.30
2022-08-23T09:28:53.707Z,13.10
2022-08-23T09:31:39.127Z,12.70
2022-08-23T09:34:08.551Z,11.20
2022-08-23T09:36:39.125Z,12.60
2022-08-23T09:39:24.428Z,12.35
2022-08-23T09:41:59.836Z,10.20
2022-08-23T09:44:37.545Z,10.38
2022-08-23T09:47:07.902Z,9.85
2022-08-23T09:49:37.472Z,10.20
2022-08-23T09:52:21.940Z,9.95
2022-08-23T09:55:01.033Z,9.43
2022-08-23T09:57:31.282Z,9.15
2022-08-23T10:00:03.516Z,10.35
2022-08-23T10:02:35.331Z,8.98
2022-08-23T10:05:07.962Z,10.48
2022-08-23T10:07:45.681Z,9.13
2022-08-23T10:10:29.265Z,9.52
2022-08-23T10:12:59.018Z,11.02
2022-08-23T10:15:49.298Z,10.38
2022-08-23T10:18:27.690Z,9.43
2022-08-23T10:21:03.016Z,13.00
2022-08-23T10:23:45.475Z,13.20
2022-08-23T10:26:28.705Z,13.65
2022-08-23T10:29:21.426Z,13.88
2022-08-23T10:32:04.448Z,14.32
2022-08-23T10:34:47.183Z,14.13
2022-08-23T10:37:32.183Z,14.68
2022-08-23T10:40:04.582Z,14.43
2022-08-23T10:42:44.539Z,14.90
2022-08-23T10:45:22.564Z,14.43
2022-08-23T10:48:05.074Z,14.38
2022-08-23T10:50:42.697Z,14.30
2022-08-23T10:53:16.129Z,13.82
2022-08-23T10:56:02.953Z,14.18
2022-08-23T10:58:38.759Z,13.43
2022-08-23T11:01:08.234Z,13.00
2022-08-23T11:03:43.398Z,13.07
2022-08-23T11:06:40.369Z,13.77
2022-08-23T11:09:10.986Z,13.57
2022-08-23T11:11:45.956Z,12.88
2022-08-23T11:14:29.205Z,12.88
2022-08-23T11:17:00.388Z,12.40
2022-08-23T11:19:50.754Z,11.77
2022-08-23T11:22:26.617Z,12.05
2022-08-23T11:24:58.690Z,12.27
2022-08-23T11:27:39.284Z,12.07
2022-08-23T11:30:43.605Z,11.75
2022-08-23T11:33:19.707Z,11.30
2022-08-23T11:35:50.589Z,9.60
2022-08-23T11:38:38.942Z,9.27
2022-08-23T11:41:22.972Z,10.23
2022-08-23T11:44:22.394Z,10.32
2022-08-23T11:47:01.081Z,9.88
2022-08-23T11:50:06.449Z,12.70
2022-08-23T11:53:19.868Z,13.10
2022-08-23T11:56:12.364Z,11.77
2022-08-23T11:59:13.477Z,12.20
2022-08-23T12:01:43.373Z,12.98
2022-08-23T12:04:27.640Z,13.23
2022-08-23T12:07:02.885Z,12.50
2022-08-23T12:09:53.443Z,12.10
2022-08-23T12:12:28.341Z,12.32
2022-08-23T12:14:58.859Z,13.15
2022-08-23T12:17:55.563Z,13.85
2022-08-23T12:20:29.881Z,13.85
2022-08-23T12:23:13.147Z,13.20
2022-08-23T12:25:42.667Z,12.27
2022-08-23T12:28:32.225Z,13.52
2022-08-23T12:31:07.882Z,12.07
2022-08-23T12:33:52.640Z,12.48
2022-08-23T12:36:30.011Z,10.80
2022-08-23T12:39:07.580Z,10.70
2022-08-23T12:41:52.350Z,11.38
2022-08-23T12:44:22.452Z,10.73
2022-08-23T12:46:51.686Z,10.13
2022-08-23T12:49:28.888Z,8.65
2022-08-23T12:52:00.732Z,9.90
2022-08-23T12:57:11.590Z,10.45
2022-08-23T12:59:44.344Z,10.30
2022-08-23T13:02:19.558Z,11.07
2022-08-23T13:04:47.853Z,8.57
2022-08-23T13:07:22.098Z,8.90
2022-08-23T13:09:53.852Z,9.85
2022-08-23T13:12:24.345Z,9.77
2022-08-23T13:14:55.247Z,10.25
2022-08-23T13:17:32.633Z,9.03
2022-08-23T13:20:19.936Z,8.95
2022-08-23T13:22:58.390Z,8.93
2022-08-23T13:25:31.901Z,10.05
2022-08-23T13:28:03.377Z,9.50
2022-08-23T13:30:33.654Z,9.32
2022-08-23T13:33:21.925Z,9.77
2022-08-23T13:35:51.395Z,9.80
2022-08-23T13:38:23.644Z,9.65
2022-08-23T13:41:03.481Z,9.77
2022-08-23T13:43:36.310Z,9.88
2022-08-23T13:46:15.738Z,10.82
2022-08-23T13:48:49.959Z,9.05
2022-08-23T13:51:20.622Z,10.05
2022-08-23T13:53:48.461Z,9.53
2022-08-23T13:56:17.628Z,9.95
2022-08-23T13:58:54.995Z,9.73
2022-08-23T14:01:23.086Z,9.65
2022-08-23T14:03:51.213Z,9.75
2022-08-23T14:06:19.697Z,10.13
2022-08-23T14:08:48.221Z,10.63
2022-08-23T14:11:17.630Z,10.20
2022-08-23T14:13:48.626Z,10.40
2022-08-23T14:16:40.072Z,9.85
2022-08-23T14:19:54.865Z,9.63
2022-08-23T14:21:58.590Z,9.32
2022-08-23T14:24:27.137Z,8.90
2022-08-23T14:26:57.629Z,9.48
2022-08-23T14:29:28.237Z,8.52
2022-08-23T14:31:57.733Z,9.95
2022-08-23T14:34:26.561Z,10.45
2022-08-23T14:39:42.889Z,12.95
2022-08-23T14:42:14.023Z,13.75
2022-08-23T14:44:42.520Z,13.68
2022-08-23T14:47:10.740Z,15.82
2022-08-23T14:49:38.689Z,14.65
2022-08-23T14:52:07.306Z,14.40
2022-08-23T14:54:35.879Z,14.15
2022-08-23T14:57:04.047Z,13.77
2022-08-23T14:59:33.228Z,12.43
2022-08-23T15:02:01.968Z,11.80
2022-08-23T15:04:34.514Z,12.48
2022-08-23T15:07:19.822Z,13.30
2022-08-23T15:09:54.429Z,12.57
2022-08-23T15:15:16.602Z,13.20
2022-08-23T15:17:52.197Z,12.27
2022-08-23T15:20:21.008Z,12.65
2022-08-23T15:22:55.056Z,12.77
2022-08-23T15:25:25.416Z,11.10
2022-08-23T15:27:54.026Z,11.68
2022-08-23T15:30:24.577Z,11.70
2022-08-23T15:32:56.562Z,11.53
2022-08-23T15:35:26.534Z,12.38
2022-08-23T15:37:57.211Z,12.07
2022-08-23T15:40:26.116Z,12.07
2022-08-23T15:42:54.449Z,12.68
2022-08-23T15:45:24.006Z,11.40
2022-08-23T15:47:54.851Z,13.05
2022-08-23T15:50:26.024Z,13.13
2022-08-23T15:52:54.598Z,12.63
2022-08-23T15:55:24.818Z,13.20
2022-08-23T15:57:54.783Z,13.50
2022-08-23T16:00:24.893Z,13.20
2022-08-23T16:03:19.176Z,14.68
2022-08-23T16:05:44.403Z,14.52
2022-08-23T16:08:18.377Z,15.02
2022-08-23T16:10:46.733Z,14.98
2022-08-23T16:13:15.085Z,16.23
2022-08-23T16:15:44.480Z,15.15
2022-08-23T16:18:12.523Z,14.02
2022-08-23T16:20:40.743Z,14.30
2022-08-23T16:23:08.947Z,15.13
2022-08-23T16:25:37.114Z,14.15
2022-08-23T16:28:07.221Z,14.40
2022-08-23T16:30:35.503Z,15.88
2022-08-23T16:33:05.100Z,16.05
2022-08-23T16:35:33.148Z,15.25
2022-08-23T16:38:00.885Z,16.52
2022-08-23T16:40:28.693Z,16.52
2022-08-23T16:42:57.362Z,16.30
2022-08-23T16:45:25.953Z,16.85
2022-08-23T16:47:54.498Z,16.63
2022-08-23T16:50:23.991Z,16.50
2022-08-23T16:52:51.994Z,16.92
2022-08-23T16:55:19.943Z,16.00
2022-08-23T16:57:47.920Z,16.55
2022-08-23T17:00:16.273Z,17.42
2022-08-23T17:02:44.639Z,16.40
2022-08-23T17:05:16.446Z,18.42
2022-08-23T17:07:46.028Z,17.17
2022-08-23T17:10:16.908Z,18.42
2022-08-23T17:12:48.864Z,18.00
2022-08-23T17:15:20.668Z,18.52
2022-08-23T17:17:49.270Z,20.33
2022-08-23T17:20:18.375Z,19.15
2022-08-23T17:22:49.235Z,18.60
2022-08-23T17:25:18.174Z,19.20
2022-08-23T17:27:47.249Z,19.95
2022-08-23T17:30:17.941Z,21.08
2022-08-23T17:32:47.644Z,20.73
2022-08-23T17:35:17.652Z,21.38
2022-08-23T17:37:47.198Z,20.23
2022-08-23T17:40:21.102Z,19.67
2022-08-23T17:42:49.796Z,19.73
2022-08-23T17:45:18.872Z,21.13
2022-08-23T17:47:47.005Z,20.42
2022-08-23T17:50:16.137Z,21.05
2022-08-23T17:52:44.979Z,20.42
2022-08-23T17:55:17.137Z,20.67
2022-08-23T17:57:48.368Z,20.67
2022-08-23T18:00:18.749Z,22.63
2022-08-23T18:02:46.571Z,20.95
2022-08-23T18:05:14.704Z,22.90
2022-08-23T18:07:42.561Z,23.00
2022-08-23T18:10:12.322Z,22.73
2022-08-23T18:12:41.882Z,24.63
2022-08-23T18:15:11.328Z,24.88
2022-08-23T18:17:40.149Z,24.63
2022-08-23T18:20:11.636Z,24.90
2022-08-23T18:22:40.231Z,24.52
2022-08-23T18:25:09.820Z,24.75
2022-08-23T18:27:55.923Z,26.55
2022-08-23T18:30:26.372Z,25.52
2022-08-23T18:32:54.718Z,26.02
2022-08-23T18:35:25.752Z,26.35
2022-08-23T18:37:54.362Z,26.27
2022-08-23T18:40:22.555Z,25.88
2022-08-23T18:42:50.894Z,26.08
2022-08-23T18:45:19.309Z,26.35
2022-08-23T18:47:51.497Z,27.30
2022-08-23T18:50:19.757Z,27.00
2022-08-23T18:52:47.638Z,28.05
2022-08-23T18:55:17.485Z,26.10
2022-08-23T18:57:45.337Z,27.15
2022-08-23T19:00:13.928Z,27.17
2022-08-23T19:02:42.048Z,27.10
2022-08-23T19:05:11.254Z,27.42
2022-08-23T19:07:39.089Z,28.35
2022-08-23T19:10:08.278Z,28.50
2022-08-23T19:12:36.146Z,28.50
2022-08-23T19:15:04.820Z,29.60
2022-08-23T19:17:33.080Z,29.83
2022-08-23T19:20:01.188Z,30.85
2022-08-23T19:22:30.297Z,30.35
2022-08-23T19:24:58.241Z,31.17
2022-08-23T19:27:26.270Z,30.42
2022-08-23T19:29:54.202Z,30.20
2022-08-23T19:32:24.885Z,32.83
2022-08-23T19:34:52.905Z,32.10
2022-08-23T19:37:23.197Z,32.60
2022-08-23T19:39:53.031Z,34.55
2022-08-23T19:42:21.504Z,34.70
2022-08-23T19:44:49.499Z,35.95
2022-08-23T19:47:20.340Z,37.22
2022-08-23T19:49:49.562Z,36.22
2022-08-23T19:52:17.524Z,38.60
2022-08-23T19:54:45.575Z,36.17
2022-08-23T19:57:14.868Z,41.03
2022-08-23T19:59:42.839Z,40.67
2022-08-23T20:02:13.787Z,41.22
2022-08-23T20:04:42.479Z,42.85
2022-08-23T20:07:10.330Z,43.60
2022-08-23T20:09:38.353Z,43.67
2022-08-23T20:12:06.546Z,44.10
2022-08-23T20:14:36.327Z,43.80
2022-08-23T20:17:07.365Z,43.28
2022-08-23T20:19:36.043Z,45.05
2022-08-23T20:22:18.543Z,44.50
2022-08-23T20:24:52.166Z,45.08
2022-08-23T20:27:28.404Z,48.45
2022-08-23T20:30:01.244Z,46.88
2022-08-23T20:32:29.735Z,47.53
2022-08-23T20:34:57.569Z,49.42
2022-08-23T20:37:25.630Z,46.50
2022-08-23T20:39:53.469Z,48.40
2022-08-23T20:42:21.430Z,47.35
2022-08-23T20:44:49.431Z,50.28
2022-08-23T20:47:18.952Z,48.65
2022-08-23T20:49:46.773Z,48.72
2022-08-23T20:52:16.599Z,49.05
2022-08-23T20:54:44.887Z,51.25
2022-08-23T20:57:12.833Z,49.08
2022-08-23T20:59:44.421Z,49.65
2022-08-23T21:02:12.928Z,49.05
2022-08-23T21:04:42.416Z,49.88
2022-08-23T21:07:10.389Z,52.25
2022-08-23T21:09:38.147Z,51.90
2022-08-23T21:12:06.442Z,51.65
2022-08-23T21:14:34.473Z,48.67
2022-08-23T21:17:02.398Z,51.60
2022-08-23T21:19:31.279Z,53.72
2022-08-23T21:22:00.996Z,54.35
2022-08-23T21:24:29.067Z,56.03
2022-08-23T21:26:57.228Z,52.83
2022-08-23T21:29:25.036Z,52.13
2022-08-23T21:31:53.882Z,53.53
2022-08-23T21:34:21.863Z,55.28
2022-08-23T21:36:51.193Z,57.85
2022-08-23T21:39:20.311Z,54.33
2022-08-23T21:41:49.199Z,53.65
2022-08-23T21:44:19.241Z,56.53
2022-08-23T21:46:48.153Z,57.13
2022-08-23T21:49:17.053Z,56.53
2022-08-23T21:51:45.976Z,56.38
2022-08-23T21:54:14.782Z,56.53
2022-08-23T21:56:45.752Z,54.17
2022-08-23T21:59:16.666Z,54.33
2022-08-23T22:01:45.117Z,54.83
2022-08-23T22:04:14.626Z,55.45
2022-08-23T22:06:44.847Z,53.33
2022-08-23T22:09:16.493Z,54.30
2022-08-23T22:11:47.462Z,54.58
2022-08-23T22:14:19.944Z,52.03
2022-08-23T22:16:49.346Z,54.17
2022-08-23T22:19:23.466Z,53.97
2022-08-23T22:21:52.418Z,54.08
2022-08-23T22:24:25.550Z,53.55
2022-08-23T22:26:56.390Z,53.58
2022-08-23T22:29:24.744Z,55.08
2022-08-23T22:31:52.554Z,52.70
2022-08-23T22:34:20.929Z,50.50
2022-08-23T22:36:52.455Z,52.50
2022-08-23T22:39:21.148Z,51.88
2022-08-23T22:41:49.873Z,51.85
2022-08-23T22:44:19.369Z,53.45
2022-08-23T22:46:47.379Z,52.83
2022-08-23T22:49:15.485Z,54.47
2022-08-23T22:51:43.444Z,54.00
2022-08-23T22:54:12.345Z,51.78
2022-08-23T22:56:42.652Z,51.53
2022-08-23T22:59:11.145Z,52.28
2022-08-23T23:01:44.261Z,52.50
2022-08-23T23:04:14.634Z,49.85
2022-08-23T23:06:43.034Z,52.72
2022-08-23T23:09:13.375Z,52.75
2022-08-23T23:11:42.477Z,52.65
2022-08-23T23:14:12.212Z,50.53
2022-08-23T23:16:49.312Z,57.28
2022-08-23T23:19:35.854Z,54.38
2022-08-23T23:22:04.535Z,56.00
2022-08-23T23:24:34.820Z,54.67
2022-08-23T23:27:03.513Z,56.67
2022-08-23T23:29:32.398Z,54.65
2022-08-23T23:32:01.833Z,54.45
2022-08-23T23:34:29.913Z,53.63
2022-08-23T23:36:58.947Z,51.15
2022-08-23T23:39:27.407Z,51.30
2022-08-23T23:41:55.938Z,53.83
2022-08-23T23:44:31.282Z,50.60
2022-08-23T23:47:02.141Z,51.33
2022-08-23T23:49:32.805Z,50.85
2022-08-23T23:52:03.391Z,51.70
2022-08-23T23:54:31.931Z,51.75
2022-08-23T23:57:00.127Z,51.67
2022-08-23T23:59:28.514Z,51.13
